Astrakhan Airport
URWA : now visible

Airfield :











YOU CAN JOIN US ON...

 
LOGIN :

Register | Disclaimer

   EN    FR    IT 

 









Legend :    VFR   Marginal VFR   IFR   Intensive IFR   Very Intensive IFR
Visi :
Ceiling :
>= 8 km
>= 3000ft
5 to 8 km
1000 to 3000 ft
1500m to 5 km
500 to 1000 ft
800 to 1500m
200 to 500 ft
< 800m
< 200 ft
Symbols :   Thunderstorms  Fog  Heavy snow  Heavy precipitations  Wind > 20 kt






- Airport Elevation : -65 ft
- IATA code : ASF


URWA - Astrakhan

CURRENT METAR :
  • 091800Z 17003MPS 9999 SCT040CB 29/17 Q1008 R27/010070 NOSIG RMK QFE758/1011

EXPIRED METARs :
  • 091730Z 17003MPS 9999 SCT040CB 29/16 Q1008 R27/010070 NOSIG RMK QFE758/1011
  • 091700Z 13002MPS 090V170 9999 SCT040CB 30/15 Q1008 R27/010070 NOSIG RMK QFE758/1011
  • 091630Z 00000MPS 9999 SCT040CB 30/16 Q1008 R27/010070 NOSIG RMK QFE758/1010
  • 091600Z 19005MPS 9999 SCT040CB 31/15 Q1008 R27/010070 TEMPO 36008G15MPS -TSRA RMK QFE758/1010
  • 091530Z 18003MPS 9999 SCT040CB 32/14 Q1008 R27/010070 TEMPO 36008G15MPS -TSRA RMK QFE757/1010

TAF TAF URWA
Valid from the 09 at 18:00 until the 10 at 03:00 UTC


091700Z 0918/1003 26003G09MPS 9999 SCT040CB
TEMPO 0918/0921 -SHRA
BECMG 0920/0921 33003G10MPS
URRV FIR / Europe



MET'MAP, your aeronautical weather chart ! - Copyright ORBIFLY December 2007 - Disclaimer

ORBIFLY MET'MAP TEAM :

Programming & Development : Alexandra Zaïnal
Concept & original design : Baudouin d'Aumeries
Assistance for programming : Marc-Olivier Méhu
Technical & hardware support : Manuel Goepfert

Contact : metmap@orbifly.com




SOURCES & CREDITS :

   NOAA       Earth
Advisory